Latest Weather Observations for Point Wilson

IDV60801

Issued at 7:32 pm EST Sunday 20 August 2017 (issued every 30 minutes, with the page automatically refreshed every 10 minutes)

About weather observations | Map of weather stations | Latest weather observations for VIC | Other Formats
Station Details ID: 087166 Name: POINT WILSON Lat: -38.10 Lon: 144.54 Height: 18.0 m
Data from the previous 72 hours. | See also: Recent months for locations in Victoria
Date/Time
EST
Temp
°C
App
Temp
°C
Dew
Point
°C
Rel
Hum
%
Delta-T
°C
Wind Press
QNH
hPa
Press
MSL
hPa
Rain since
9am
mm
Dir  Spd
km/h
Gust
km/h
Spd
kts
Gust
kts
20/07:30pm - - - - - ESE 15 17 8 9 - - -
20/07:00pm - - - - - ESE 19 20 10 11 - - -
20/06:30pm - - - - - ESE 19 20 10 11 - - -
20/06:00pm - - - - - ESE 13 17 7 9 - - -
20/05:30pm - - - - - ESE 15 17 8 9 - - -
20/05:00pm - - - - - ESE 17 20 9 11 - - -
20/04:30pm - - - - - E 20 22 11 12 - - -
20/04:00pm - - - - - E 19 20 10 11 - - -
20/03:30pm - - - - - E 19 22 10 12 - - -
20/03:00pm - - - - - E 19 20 10 11 - - -
20/02:30pm - - - - - E 17 19 9 10 - - -
20/02:00pm - - - - - ESE 11 13 6 7 - - -
20/01:30pm - - - - - ESE 11 13 6 7 - - -
20/01:00pm - - - - - SE 7 9 4 5 - - -
20/12:30pm - - - - - SW 6 7 3 4 - - -
20/12:00pm - - - - - SW 9 11 5 6 - - -
20/11:30am - - - - - WSW 7 9 4 5 - - -
20/11:00am - - - - - W 13 13 7 7 - - -
20/10:30am - - - - - WSW 11 15 6 8 - - -
20/10:00am - - - - - W 17 20 9 11 - - -
20/09:30am - - - - - W 20 24 11 13 - - -
20/09:00am - - - - - W 20 26 11 14 - - -
20/08:30am - - - - - W 24 28 13 15 - - -
20/08:00am - - - - - W 22 24 12 13 - - -
20/07:30am - - - - - W 19 22 10 12 - - -
20/07:00am - - - - - WNW 19 20 10 11 - - -
20/06:30am - - - - - WNW 20 24 11 13 - - -
20/06:00am - - - - - W 19 22 10 12 - - -
20/05:30am - - - - - W 13 17 7 9 - - -
20/05:00am - - - - - WNW 13 19 7 10 - - -
20/04:30am - - - - - WNW 20 24 11 13 - - -
20/04:00am - - - - - WNW 17 24 9 13 - - -
20/03:30am - - - - - W 20 26 11 14 - - -
20/03:00am - - - - - W 15 19 8 10 - - -
20/02:30am - - - - - W 20 26 11 14 - - -
20/02:00am - - - - - WNW 11 13 6 7 - - -
20/01:30am - - - - - WNW 13 17 7 9 - - -
20/01:00am - - - - - WNW 7 13 4 7 - - -
20/12:30am - - - - - W 26 30 14 16 - - -
20/12:00am - - - - - W 22 32 12 17 - - -
 
Date/Time
EST
Temp
°C
App
Temp
°C
Dew
Point
°C
Rel
Hum
%
Delta-T
°C
Wind Press
QNH
hPa
Press
MSL
hPa
Rain since
9am
mm
Dir  Spd
km/h
Gust
km/h
Spd
kts
Gust
kts
19/11:30pm - - - - - WNW 20 24 11 13 - - -
19/11:00pm - - - - - WNW 17 19 9 10 - - -
19/10:30pm - - - - - W 11 15 6 8 - - -
19/10:00pm - - - - - WNW 15 17 8 9 - - -
19/09:30pm - - - - - WSW 17 20 9 11 - - -
19/09:00pm - - - - - SW 13 15 7 8 - - -
19/08:30pm - - - - - SSW 20 24 11 13 - - -
19/08:00pm - - - - - SW 15 17 8 9 - - -
19/07:30pm - - - - - SW 13 17 7 9 - - -
19/07:00pm - - - - - SW 19 22 10 12 - - -
19/06:30pm - - - - - SW 24 28 13 15 - - -
19/06:00pm - - - - - SSW 17 19 9 10 - - -
19/05:30pm - - - - - SSW 20 24 11 13 - - -
19/05:00pm - - - - - SSW 22 24 12 13 - - -
19/04:30pm - - - - - SSW 24 28 13 15 - - -
19/04:00pm - - - - - SSW 24 30 13 16 - - -
19/03:30pm - - - - - SSW 26 33 14 18 - - -
19/03:00pm - - - - - SSW 26 32 14 17 - - -
19/02:30pm - - - - - SSW 30 33 16 18 - - -
19/02:00pm - - - - - SSW 28 32 15 17 - - -
19/01:49pm - - - - - SSW 28 32 15 17 - - -
19/01:30pm - - - - - SSE 7 9 4 5 - - -
19/01:00pm - - - - - S 15 24 8 13 - - -
19/12:30pm - - - - - NNE 7 9 4 5 - - -
19/12:00pm - - - - - NW 9 11 5 6 - - -
19/11:30am - - - - - WSW 26 39 14 21 - - -
19/11:00am - - - - - SSW 17 28 9 15 - - -
19/10:30am - - - - - WSW 17 24 9 13 - - -
19/10:00am - - - - - WSW 17 20 9 11 - - -
19/09:30am - - - - - WNW 24 28 13 15 - - -
19/09:00am - - - - - W 22 28 12 15 - - -
19/08:30am - - - - - W 22 28 12 15 - - -
19/08:00am - - - - - SSW 19 32 10 17 - - -
19/07:30am - - - - - SW 20 22 11 12 - - -
19/07:00am - - - - - WSW 26 30 14 16 - - -
19/06:30am - - - - - WSW 28 33 15 18 - - -
19/06:00am - - - - - W 30 35 16 19 - - -
19/05:30am - - - - - WSW 24 30 13 16 - - -
19/05:00am - - - - - W 30 33 16 18 - - -
19/04:30am - - - - - W 26 30 14 16 - - -
19/04:00am - - - - - WSW 30 35 16 19 - - -
19/03:30am - - - - - WSW 28 32 15 17 - - -
19/03:00am - - - - - WSW 32 39 17 21 - - -
19/02:30am - - - - - WSW 32 41 17 22 - - -
19/02:00am - - - - - WSW 28 37 15 20 - - -
19/01:30am - - - - - W 28 33 15 18 - - -
19/01:00am - - - - - W 28 33 15 18 - - -
19/12:30am - - - - - WSW 24 32 13 17 - - -
19/12:00am - - - - - WSW 28 35 15 19 - - -
 
Date/Time
EST
Temp
°C
App
Temp
°C
Dew
Point
°C
Rel
Hum
%
Delta-T
°C
Wind Press
QNH
hPa
Press
MSL
hPa
Rain since
9am
mm
Dir  Spd
km/h
Gust
km/h
Spd
kts
Gust
kts
18/11:30pm - - - - - WSW 26 30 14 16 - - -
18/11:00pm - - - - - WSW 41 50 22 27 - - -
18/10:54pm - - - - - WSW 35 50 19 27 - - -
18/10:30pm - - - - - WSW 24 32 13 17 - - -
18/10:00pm - - - - - SW 33 39 18 21 - - -
18/09:30pm - - - - - WSW 28 33 15 18 - - -
18/09:00pm - - - - - WSW 26 30 14 16 - - -
18/08:31pm - - - - - WSW 35 54 19 29 - - -
18/08:30pm - - - - - WSW 33 39 18 21 - - -
18/08:00pm - - - - - W 32 37 17 20 - - -
18/07:30pm - - - - - WSW 24 30 13 16 - - -
18/07:00pm - - - - - SW 28 33 15 18 - - -
18/06:30pm - - - - - WSW 28 32 15 17 - - -
18/06:00pm - - - - - WSW 35 43 19 23 - - -
18/05:30pm - - - - - SW 32 37 17 20 - - -
18/05:13pm - - - - - WSW 35 46 19 25 - - -
18/05:00pm - - - - - W 30 35 16 19 - - -
18/04:30pm - - - - - WSW 28 33 15 18 - - -
18/04:00pm - - - - - W 35 43 19 23 - - -
18/03:30pm - - - - - W 39 50 21 27 - - -
18/03:00pm - - - - - WSW 37 46 20 25 - - -
18/02:43pm - - - - - WSW 28 48 15 26 - - -
18/02:30pm - - - - - WSW 24 28 13 15 - - -
18/02:00pm - - - - - SW 37 57 20 31 - - -
18/01:55pm - - - - - SW 43 57 23 31 - - -
18/01:52pm - - - - - WSW 43 57 23 31 - - -
18/01:30pm - - - - - W 39 48 21 26 - - -
18/01:00pm - - - - - WSW 35 43 19 23 - - -
18/12:30pm - - - - - W 37 46 20 25 - - -
18/12:09pm - - - - - WSW 41 52 22 28 - - -
18/12:00pm - - - - - WSW 39 52 21 28 - - -
18/11:30am - - - - - W 41 50 22 27 - - -
18/11:00am - - - - - W 48 56 26 30 - - -
18/10:30am - - - - - W 46 61 25 33 - - -
18/10:00am - - - - - W 43 52 23 28 - - -
18/09:30am - - - - - W 43 54 23 29 - - -
18/09:00am - - - - - W 43 52 23 28 - - -
18/08:30am - - - - - WNW 50 65 27 35 - - -
18/08:28am - - - - - WNW 50 65 27 35 - - -
18/08:00am - - - - - WNW 37 46 20 25 - - -
18/07:30am - - - - - WNW 39 48 21 26 - - -
18/07:00am - - - - - W 46 54 25 29 - - -
18/06:30am - - - - - W 43 52 23 28 - - -
18/06:00am - - - - - W 46 63 25 34 - - -
18/05:53am - - - - - WNW 43 61 23 33 - - -
18/05:30am - - - - - WNW 46 57 25 31 - - -
18/05:00am - - - - - WNW 43 54 23 29 - - -
18/04:30am - - - - - WNW 50 59 27 32 - - -
18/04:00am - - - - - W 52 69 28 37 - - -
18/03:52am - - - - - W 48 69 26 37 - - -
18/03:30am - - - - - WNW 48 57 26 31 - - -
18/03:00am - - - - - WNW 46 56 25 30 - - -
18/02:30am - - - - - WNW 39 52 21 28 - - -
18/02:00am - - - - - NW 37 46 20 25 - - -
18/01:30am - - - - - WNW 30 39 16 21 - - -
18/01:00am - - - - - WNW 33 43 18 23 - - -
18/12:30am - - - - - WNW 33 43 18 23 - - -
18/12:00am - - - - - WNW 26 32 14 17 - - -
 
Date/Time
EST
Temp
°C
App
Temp
°C
Dew
Point
°C
Rel
Hum
%
Delta-T
°C
Wind Press
QNH
hPa
Press
MSL
hPa
Rain since
9am
mm
Dir  Spd
km/h
Gust
km/h
Spd
kts
Gust
kts
17/11:30pm - - - - - WNW 30 39 16 21 - - -
17/11:00pm - - - - - NW 24 30 13 16 - - -
17/10:30pm - - - - - NW 20 26 11 14 - - -
17/10:00pm - - - - - W 33 41 18 22 - - -
17/09:30pm - - - - - WNW 39 54 21 29 - - -
17/09:27pm - - - - - WNW 35 54 19 29 - - -
17/09:00pm - - - - - WNW 28 33 15 18 - - -
17/08:30pm - - - - - NNW 26 33 14 18 - - -
17/08:00pm - - - - - NNW 32 37 17 20 - - -

Other Formats:

Comma delimited format used in spreadsheet applications
http://www.bom.gov.au/fwo/IDV60801/IDV60801.94847.axf

JavaScript Object Notation format (JSON) in row-major order
http://www.bom.gov.au/fwo/IDV60801/IDV60801.94847.json